Time;durP1;ratioP1;P1;durP2;ratioP2;P2;SDS_P1;SDS_P2;PMS_P1;PMS_P2;Temp;Humidity;BMP_temperature;BMP_pressure;BME280_temperature;BME280_humidity;BME280_pressure;Samples;Min_cycle;Max_cycle;Signal;HPM_P1;HPM_P2
2021/01/09 00:00:15;;;;;;;35.30;22.17;;;;;;;-1.16;100.00;102138.63;4958779;28;20023;-81
2021/01/09 00:02:43;;;;;;;40.05;23.88;;;;;;;-0.73;100.00;102202.00;4928652;28;20031;-72
2021/01/09 00:05:12;;;;;;;34.00;22.27;;;;;;;-0.74;100.00;102210.75;4951515;28;20057;-78
2021/01/09 00:07:41;;;;;;;37.25;22.77;;;;;;;-0.73;100.00;102202.84;4968567;28;20019;-77
2021/01/09 00:10:08;;;;;;;35.03;22.23;;;;;;;-0.75;100.00;102211.66;4917055;29;20545;-72
2021/01/09 00:12:34;;;;;;;38.92;23.48;;;;;;;-0.81;100.00;102189.13;4944224;28;20043;-72
2021/01/09 00:15:00;;;;;;;40.78;25.33;;;;;;;-0.65;100.00;102207.84;4946237;28;20031;-72
2021/01/09 00:17:26;;;;;;;36.75;23.27;;;;;;;-0.71;100.00;102198.41;4945272;28;20139;-77
2021/01/09 00:19:52;;;;;;;42.05;22.83;;;;;;;-0.72;100.00;102201.94;4946414;28;20054;-81
2021/01/09 00:22:17;;;;;;;36.70;22.02;;;;;;;-0.68;100.00;102211.44;4948530;28;20046;-72
2021/01/09 00:24:42;;;;;;;36.20;23.30;;;;;;;-0.83;100.00;102196.16;4950734;29;20097;-82
2021/01/09 00:27:26;;;;;;;35.92;21.55;;;;;;;-1.01;100.00;102172.22;4933431;28;20046;-77
2021/01/09 00:29:52;;;;;;;35.90;21.98;;;;;;;-0.78;100.00;102213.47;4934892;29;20053;-72
2021/01/09 00:32:17;;;;;;;35.47;21.23;;;;;;;-0.83;100.00;102209.28;4950480;28;20483;-78
2021/01/09 00:34:43;;;;;;;34.50;22.35;;;;;;;-0.97;100.00;102186.09;4950213;29;20035;-77
2021/01/09 00:37:11;;;;;;;35.17;21.48;;;;;;;-0.83;100.00;102223.25;4950709;28;20039;-78
2021/01/09 00:39:38;;;;;;;35.38;23.73;;;;;;;-0.83;100.00;102210.16;4934994;29;20035;-78
2021/01/09 00:42:03;;;;;;;35.55;22.88;;;;;;;-0.81;100.00;102210.94;4950969;28;20091;-77
2021/01/09 00:44:28;;;;;;;41.75;22.90;;;;;;;-0.82;100.00;102214.50;4914508;29;20042;-77
2021/01/09 00:46:55;;;;;;;37.40;23.30;;;;;;;-1.03;100.00;102183.66;4963397;28;20054;-77
2021/01/09 00:49:21;;;;;;;36.92;23.17;;;;;;;-0.99;100.00;102198.41;4947007;28;20031;-77
2021/01/09 00:51:46;;;;;;;39.63;23.48;;;;;;;-0.85;100.00;102221.56;4949332;28;20054;-72
2021/01/09 00:54:12;;;;;;;36.47;23.05;;;;;;;-1.12;100.00;102176.91;4950783;28;20042;-78
2021/01/09 00:56:37;;;;;;;34.95;21.85;;;;;;;-0.89;100.00;102226.03;4927290;28;20561;-74
2021/01/09 00:59:03;;;;;;;35.17;23.00;;;;;;;-0.90;100.00;102229.56;4963842;28;20543;-72
2021/01/09 01:01:28;;;;;;;38.75;23.13;;;;;;;-0.90;100.00;102226.09;4929125;28;20031;-78
2021/01/09 01:03:54;;;;;;;40.30;23.08;;;;;;;-1.18;100.00;102183.19;4955720;28;20035;-77
2021/01/09 01:06:23;;;;;;;39.80;22.48;;;;;;;-1.32;100.00;102157.41;4934546;28;20031;-77
2021/01/09 01:08:49;;;;;;;41.55;23.60;;;;;;;-1.06;100.00;102199.47;4948229;28;20101;-77
2021/01/09 01:11:25;;;;;;;35.13;22.08;;;;;;;-1.05;100.00;102180.22;4963183;28;20059;-77
2021/01/09 01:13:51;;;;;;;42.05;23.15;;;;;;;-0.90;100.00;102195.50;4930941;29;20071;-72
2021/01/09 01:16:16;;;;;;;33.88;22.10;;;;;;;-0.77;100.00;102224.84;4960939;28;20039;-72
2021/01/09 01:18:42;;;;;;;37.53;22.02;;;;;;;-0.83;100.00;102235.50;4948689;29;20094;-78
2021/01/09 01:21:07;;;;;;;36.38;21.40;;;;;;;-1.00;100.00;102208.00;4950512;28;20023;-77
2021/01/09 01:23:33;;;;;;;34.25;21.45;;;;;;;-0.84;100.00;102236.38;4931162;29;20031;-78
2021/01/09 01:25:58;;;;;;;30.75;19.70;;;;;;;-0.89;100.00;102238.31;4948329;28;20027;-77
2021/01/09 01:28:24;;;;;;;33.47;20.25;;;;;;;-0.89;100.00;102238.31;4952228;28;20027;-77
2021/01/09 01:30:49;;;;;;;36.00;21.45;;;;;;;-0.84;100.00;102241.63;4954261;28;20537;-77
2021/01/09 01:33:20;;;;;;;33.75;20.98;;;;;;;-0.82;100.00;102240.69;4938281;29;20050;-77
2021/01/09 01:35:47;;;;;;;32.15;20.35;;;;;;;-0.84;100.00;102250.38;4937064;28;20060;-72
2021/01/09 01:38:15;;;;;;;33.33;20.42;;;;;;;-0.87;100.00;102255.69;4959859;28;20092;-72
2021/01/09 01:40:41;;;;;;;36.58;22.80;;;;;;;-0.98;100.00;102240.25;4974754;28;20023;-76
2021/01/09 01:43:16;;;;;;;35.38;21.67;;;;;;;-1.23;100.00;102188.56;4938955;29;20110;-77
2021/01/09 01:45:42;;;;;;;37.10;21.83;;;;;;;-0.75;100.00;102269.34;4953049;29;20138;-77
2021/01/09 01:48:09;;;;;;;36.08;22.13;;;;;;;-0.73;100.00;102268.38;4954667;28;20146;-77
2021/01/09 01:50:34;;;;;;;31.63;19.67;;;;;;;-1.14;100.00;102197.94;4953959;28;20074;-77
2021/01/09 01:53:00;;;;;;;37.85;21.23;;;;;;;-0.72;100.00;102270.09;4938992;29;20082;-78
2021/01/09 01:55:26;;;;;;;29.23;18.92;;;;;;;-0.70;100.00;102272.69;4933916;28;20033;-78
2021/01/09 01:57:51;;;;;;;31.42;19.60;;;;;;;-0.71;100.00;102271.81;4951530;28;20041;-72
2021/01/09 02:00:18;;;;;;;32.13;19.83;;;;;;;-0.74;100.00;102258.81;4954750;28;20015;-74
2021/01/09 02:02:44;;;;;;;30.17;18.77;;;;;;;-0.78;100.00;102254.56;4953283;28;20486;-72
2021/01/09 02:05:10;;;;;;;32.28;20.05;;;;;;;-0.67;100.00;102278.72;4971548;28;20042;-72
2021/01/09 02:07:38;;;;;;;33.10;19.75;;;;;;;-0.67;100.00;102265.59;4954090;28;20027;-78
2021/01/09 02:10:04;;;;;;;;;;;;;;;-0.64;100.00;102281.25;4940832;28;20043;-78
2021/01/09 02:12:48;;;;;;;28.20;18.50;;;;;;;-0.65;100.00;102273.41;4953496;28;19914;-72
2021/01/09 02:15:14;;;;;;;29.77;18.75;;;;;;;-0.91;100.00;102240.09;4936960;28;20035;-73
2021/01/09 02:17:40;;;;;;;30.83;18.02;;;;;;;-1.05;100.00;102212.53;4953387;28;20092;-78
2021/01/09 02:20:06;;;;;;;27.88;17.40;;;;;;;-0.67;100.00;102280.44;4939510;28;20034;-72
2021/01/09 02:22:41;;;;;;;25.20;16.80;;;;;;;-0.72;100.00;102288.47;4921031;28;20043;-78
2021/01/09 02:25:06;;;;;;;31.20;17.00;;;;;;;-0.74;100.00;102289.41;4936970;28;20043;-72
2021/01/09 02:27:32;;;;;;;28.05;16.77;;;;;;;-1.04;100.00;102258.81;4949058;28;20039;-73
2021/01/09 02:30:02;;;;;;;29.15;17.73;;;;;;;-0.78;100.00;102288.66;4940002;29;20058;-72
2021/01/09 02:32:28;;;;;;;26.77;16.08;;;;;;;-0.83;100.00;102293.16;4955536;28;20030;-78
2021/01/09 02:34:58;;;;;;;23.13;15.35;;;;;;;-1.12;100.00;102256.38;4938973;28;20880;-77
2021/01/09 02:37:24;;;;;;;24.00;14.75;;;;;;;-0.93;100.00;102289.94;4969274;28;20110;-72
2021/01/09 02:39:50;;;;;;;25.48;15.13;;;;;;;-0.98;100.00;102294.47;4949932;28;20046;-79
2021/01/09 02:42:16;;;;;;;24.20;15.05;;;;;;;-1.01;100.00;102294.53;4950449;28;20485;-72
2021/01/09 02:44:42;;;;;;;30.50;15.02;;;;;;;-1.30;100.00;102262.13;4950921;28;20102;-78
2021/01/09 02:47:07;;;;;;;24.15;15.35;;;;;;;-1.09;100.00;102294.75;4936121;28;20489;-78
2021/01/09 02:49:33;;;;;;;25.17;16.13;;;;;;;-1.12;100.00;102300.94;4964264;28;20758;-78
2021/01/09 02:51:58;;;;;;;22.92;15.18;;;;;;;-1.32;100.00;102263.91;4962602;28;20083;-72
2021/01/09 02:54:24;;;;;;;29.92;14.85;;;;;;;-2.03;100.00;102151.47;4951593;28;20028;-78
2021/01/09 02:56:49;;;;;;;27.45;15.00;;;;;;;-1.35;100.00;102267.50;4949814;28;20034;-78
2021/01/09 02:59:15;;;;;;;23.48;15.27;;;;;;;-1.15;100.00;102300.13;4921835;29;20112;-72
2021/01/09 03:01:40;;;;;;;26.13;14.90;;;;;;;-1.15;100.00;102303.63;4948496;28;20034;-78
2021/01/09 03:04:07;;;;;;;25.45;15.55;;;;;;;-1.13;100.00;102295.72;4972070;28;20035;-78
2021/01/09 03:06:32;;;;;;;26.55;15.50;;;;;;;-1.39;100.00;102256.25;4948858;28;20035;-78
2021/01/09 03:08:58;;;;;;;23.27;14.68;;;;;;;-1.13;100.00;102301.84;4951556;28;20047;-72
2021/01/09 03:11:23;;;;;;;26.10;15.23;;;;;;;-1.11;100.00;102299.16;4936281;28;20117;-73
2021/01/09 03:13:48;;;;;;;20.85;14.25;;;;;;;-1.11;100.00;102301.78;4953056;28;20083;-78
2021/01/09 03:16:14;;;;;;;22.98;14.13;;;;;;;-1.13;100.00;102298.34;4950145;28;20039;-78
2021/01/09 03:18:40;;;;;;;20.45;14.02;;;;;;;-1.15;100.00;102302.75;4951479;28;20046;-77
2021/01/09 03:21:05;;;;;;;24.48;14.52;;;;;;;-1.41;100.00;102259.78;4935456;29;20143;-77
2021/01/09 03:23:31;;;;;;;22.45;15.30;;;;;;;-1.09;100.00;102308.69;4919561;28;20070;-79
2021/01/09 03:25:56;;;;;;;25.00;15.40;;;;;;;-1.19;100.00;102282.78;4948208;28;20498;-78
2021/01/09 03:28:22;;;;;;;21.45;14.27;;;;;;;-1.14;100.00;102286.13;4949618;28;20032;-79
2021/01/09 03:30:47;;;;;;;21.88;13.50;;;;;;;-1.17;100.00;102286.25;4949594;28;20023;-78
2021/01/09 03:33:13;;;;;;;23.40;13.65;;;;;;;-1.63;100.00;102221.09;4929708;29;20122;-77
2021/01/09 03:35:38;;;;;;;20.65;13.10;;;;;;;-1.16;100.00;102306.31;4932112;28;20034;-72
2021/01/09 03:38:04;;;;;;;22.35;13.40;;;;;;;-1.21;100.00;102302.94;4951921;28;20620;-79
2021/01/09 03:40:29;;;;;;;23.48;13.05;;;;;;;-1.25;100.00;102305.63;4951077;28;20039;-78
2021/01/09 03:42:55;;;;;;;19.60;13.65;;;;;;;-1.66;100.00;102252.56;4954498;28;20065;-77
2021/01/09 03:45:20;;;;;;;22.02;13.15;;;;;;;-1.49;100.00;102286.16;4934588;28;20039;-78
2021/01/09 03:47:46;;;;;;;20.65;12.48;;;;;;;-1.60;100.00;102264.63;4917089;29;20260;-78
2021/01/09 03:50:12;;;;;;;21.27;13.40;;;;;;;-1.48;100.00;102282.66;4935111;28;20058;-78
2021/01/09 03:52:37;;;;;;;23.38;14.50;;;;;;;-1.25;100.00;102307.41;4947962;28;20038;-78
2021/01/09 03:55:03;;;;;;;26.00;14.95;;;;;;;-1.43;100.00;102296.50;4918335;29;20055;-72
2021/01/09 03:57:29;;;;;;;23.83;14.75;;;;;;;-1.29;100.00;102314.47;4933146;28;20050;-72
2021/01/09 03:59:54;;;;;;;23.42;14.80;;;;;;;-1.29;100.00;102313.59;4939851;28;20028;-72
2021/01/09 04:02:20;;;;;;;21.13;14.38;;;;;;;-1.72;100.00;102248.34;4949617;28;20094;-78
2021/01/09 04:04:45;;;;;;;24.92;15.27;;;;;;;-1.30;100.00;102314.50;4934867;28;20429;-72
2021/01/09 04:07:11;;;;;;;23.50;14.80;;;;;;;-1.37;100.00;102319.03;4948523;28;20047;-78
2021/01/09 04:09:36;;;;;;;26.63;13.98;;;;;;;-1.59;100.00;102282.94;4934751;29;20078;-73
2021/01/09 04:12:02;;;;;;;19.65;13.57;;;;;;;-1.61;100.00;102282.13;4947146;28;20039;-78
2021/01/09 04:14:27;;;;;;;25.25;14.48;;;;;;;-1.45;100.00;102303.53;4947815;28;20548;-79
2021/01/09 04:16:52;;;;;;;19.55;13.30;;;;;;;-1.74;100.00;102262.38;4961456;28;22121;-80
2021/01/09 04:19:18;;;;;;;23.95;14.23;;;;;;;-1.49;100.00;102306.28;4963394;28;20038;-72
2021/01/09 04:21:51;;;;;;;22.65;13.48;;;;;;;-1.53;100.00;102310.72;4947599;28;20082;-73
2021/01/09 04:24:17;;;;;;;25.08;13.68;;;;;;;-1.55;100.00;102304.66;4947305;28;20486;-72
2021/01/09 04:26:42;;;;;;;19.63;13.20;;;;;;;-1.55;100.00;102315.13;4965796;28;20070;-77
2021/01/09 04:29:08;;;;;;;18.83;12.77;;;;;;;-1.88;100.00;102258.34;4935660;29;20042;-73
2021/01/09 04:31:33;;;;;;;19.67;13.20;;;;;;;-1.60;100.00;102322.25;4949283;28;20078;-77
2021/01/09 04:33:59;;;;;;;16.73;12.27;;;;;;;-1.62;100.00;102317.06;4949204;28;20032;-77
2021/01/09 04:36:24;;;;;;;16.80;11.73;;;;;;;-1.74;100.00;102301.66;4954421;28;20039;-78
2021/01/09 04:38:50;;;;;;;20.33;12.88;;;;;;;-1.82;100.00;102283.50;4949883;28;20035;-78
2021/01/09 04:41:19;;;;;;;22.45;12.57;;;;;;;-1.64;100.00;102318.00;4933730;29;20458;-78
2021/01/09 04:43:44;;;;;;;19.15;12.75;;;;;;;-1.63;100.00;102322.34;4947511;29;20034;-71
2021/01/09 04:46:10;;;;;;;19.45;12.50;;;;;;;-1.64;100.00;102328.47;4949623;28;20027;-77
2021/01/09 04:48:35;;;;;;;20.30;12.55;;;;;;;-1.66;100.00;102325.03;4931727;29;20478;-77
2021/01/09 04:51:01;;;;;;;18.55;12.27;;;;;;;-1.66;100.00;102327.63;4947310;28;20046;-77
2021/01/09 04:53:27;;;;;;;18.95;11.90;;;;;;;-1.88;100.00;102296.72;4976864;28;20031;-78
2021/01/09 04:55:53;;;;;;;21.13;11.95;;;;;;;-1.73;100.00;102330.38;4942513;28;20031;-78
2021/01/09 04:58:18;;;;;;;19.70;11.55;;;;;;;-2.00;100.00;102287.44;4933080;28;20039;-79
2021/01/09 05:00:46;;;;;;;19.08;12.32;;;;;;;-1.74;100.00;102333.06;4930236;28;20038;-78
2021/01/09 05:03:11;;;;;;;17.88;12.73;;;;;;;-1.74;100.00;102336.53;4948976;28;20711;-79
2021/01/09 05:05:40;;;;;;;19.75;12.10;;;;;;;-1.77;100.00;102335.75;4963318;28;20149;-78
2021/01/09 05:08:05;;;;;;;19.13;11.77;;;;;;;-1.97;100.00;102317.88;4965716;28;20126;-77
2021/01/09 05:10:35;;;;;;;18.73;12.40;;;;;;;-2.07;100.00;102291.94;4965017;28;20151;-78
2021/01/09 05:13:03;;;;;;;15.57;11.23;;;;;;;-1.80;100.00;102338.41;4944112;28;20039;-78
2021/01/09 05:15:46;;;;;;;17.05;11.20;;;;;;;-1.93;100.00;102340.47;4966599;28;20030;-72
2021/01/09 05:18:12;;;;;;;18.63;13.10;;;;;;;-1.98;100.00;102327.50;4963962;28;20047;-78
2021/01/09 05:20:42;;;;;;;20.20;12.77;;;;;;;-1.86;100.00;102345.53;4944161;28;20073;-78
2021/01/09 05:23:09;;;;;;;18.60;12.18;;;;;;;-1.85;100.00;102354.25;4949239;28;20087;-78
2021/01/09 05:25:34;;;;;;;20.27;12.90;;;;;;;-2.08;100.00;102316.38;4931285;28;20055;-78
2021/01/09 05:28:00;;;;;;;23.20;13.27;;;;;;;-2.06;100.00;102319.84;4965534;28;20039;-77
2021/01/09 05:30:25;;;;;;;22.42;13.57;;;;;;;-2.20;100.00;102301.81;4949055;28;20038;-79
2021/01/09 05:32:51;;;;;;;18.85;12.52;;;;;;;-2.06;100.00;102327.69;4948589;28;20038;-78
2021/01/09 05:35:22;;;;;;;23.67;12.43;;;;;;;-2.11;100.00;102326.91;4961335;28;20528;-77
2021/01/09 05:37:48;;;;;;;;;;;;;;;-1.93;100.00;102353.56;4961404;28;20041;-77
2021/01/09 05:40:13;;;;;;;19.52;12.63;;;;;;;-1.93;100.00;102351.78;4932418;28;20015;-78
2021/01/09 05:42:39;;;;;;;22.17;13.43;;;;;;;-2.18;100.00;102312.25;4948945;28;20039;-78
2021/01/09 05:45:05;;;;;;;24.52;13.55;;;;;;;-1.89;100.00;102360.44;4948051;28;20067;-78
2021/01/09 05:47:31;;;;;;;21.77;13.88;;;;;;;-2.32;100.00;102302.97;4947359;28;20027;-77
2021/01/09 05:49:58;;;;;;;17.95;12.48;;;;;;;-2.01;100.00;102353.72;4945306;28;20070;-72
2021/01/09 05:52:24;;;;;;;19.00;12.35;;;;;;;-2.01;100.00;102351.13;4964366;28;20043;-78
2021/01/09 05:54:59;;;;;;;17.75;11.88;;;;;;;-1.93;100.00;102372.72;4912943;28;20039;-77
2021/01/09 05:57:31;;;;;;;20.98;12.93;;;;;;;-1.91;100.00;102364.88;4948081;28;20115;-77
2021/01/09 06:00:02;;;;;;;19.83;12.65;;;;;;;-2.12;100.00;102346.13;4949418;28;20106;-78
2021/01/09 06:02:28;;;;;;;17.80;12.68;;;;;;;-2.19;100.00;102321.00;4943730;28;20035;-78
2021/01/09 06:04:56;;;;;;;20.65;13.40;;;;;;;-1.93;100.00;102358.81;4932253;29;20038;-78
2021/01/09 06:07:25;;;;;;;21.25;13.63;;;;;;;-2.21;100.00;102323.63;4946907;28;20034;-78
2021/01/09 06:09:53;;;;;;;25.27;15.07;;;;;;;-1.85;100.00;102376.06;4950619;28;20075;-78
2021/01/09 06:12:21;;;;;;;27.25;15.55;;;;;;;-1.80;100.00;102381.19;4947874;28;20078;-72
2021/01/09 06:14:46;;;;;;;22.08;14.55;;;;;;;-1.79;100.00;102382.91;4931108;28;20031;-72
2021/01/09 06:17:12;;;;;;;26.25;14.32;;;;;;;-1.75;100.00;102386.31;4953838;28;20232;-72
2021/01/09 06:19:37;;;;;;;24.83;16.90;;;;;;;-1.92;100.00;102361.38;4930515;28;20031;-72
2021/01/09 06:22:03;;;;;;;32.90;19.38;;;;;;;-1.96;100.00;102340.53;4953283;28;20119;-72
2021/01/09 06:24:28;;;;;;;55.08;23.92;;;;;;;-1.82;100.00;102371.63;4964053;28;20552;-73
2021/01/09 06:26:54;;;;;;;39.45;21.17;;;;;;;-1.84;100.00;102369.03;4942069;29;20070;-72
2021/01/09 06:29:24;;;;;;;36.75;19.92;;;;;;;-1.98;100.00;102345.81;4953402;28;20036;-72
2021/01/09 06:31:56;;;;;;;37.13;18.92;;;;;;;-1.70;100.00;102387.06;4919540;29;20035;-72
2021/01/09 06:34:23;;;;;;;35.38;18.17;;;;;;;-2.09;100.00;102324.25;4962955;28;20047;-72
2021/01/09 06:36:53;;;;;;;29.67;17.80;;;;;;;-1.70;100.00;102387.91;4952355;28;20086;-72
2021/01/09 06:39:18;;;;;;;28.65;16.40;;;;;;;-1.71;100.00;102395.81;4937123;29;20023;-72
2021/01/09 06:41:44;;;;;;;33.72;16.50;;;;;;;-1.72;100.00;102387.09;4950181;28;20090;-72
2021/01/09 06:44:09;;;;;;;27.23;16.35;;;;;;;-1.69;100.00;102383.53;4929548;29;20051;-72
2021/01/09 06:46:35;;;;;;;32.65;17.02;;;;;;;-1.90;100.00;102350.88;4950815;28;20031;-72
2021/01/09 06:49:01;;;;;;;33.03;16.90;;;;;;;-1.71;100.00;102388.81;4952649;28;20045;-73
2021/01/09 06:51:40;;;;;;;28.05;16.27;;;;;;;-1.70;100.00;102390.53;4949296;28;20494;-72
2021/01/09 06:54:15;;;;;;;29.58;16.00;;;;;;;-1.71;100.00;102391.44;4941689;28;20059;-72
2021/01/09 06:56:42;;;;;;;26.13;15.38;;;;;;;-1.70;100.00;102397.53;4953205;28;20051;-73
2021/01/09 06:59:07;;;;;;;27.42;15.52;;;;;;;-1.72;100.00;102400.16;4948223;28;20043;-72
2021/01/09 07:01:36;;;;;;;28.25;15.32;;;;;;;-1.80;100.00;102389.03;4919766;29;20098;-72
2021/01/09 07:04:02;;;;;;;24.80;15.43;;;;;;;-1.70;100.00;102402.78;4951292;28;20114;-72
2021/01/09 07:06:57;;;;;;;27.80;15.35;;;;;;;-1.69;100.00;102404.47;4954065;28;20035;-78
2021/01/09 07:09:24;;;;;;;30.60;18.83;;;;;;;-2.67;100.00;102228.78;4952605;29;20047;-79
2021/01/09 07:11:50;;;;;;;39.92;21.38;;;;;;;-1.50;100.00;102402.31;4937162;29;20050;-72
2021/01/09 07:14:16;;;;;;;41.80;21.83;;;;;;;-1.45;100.00;102399.56;4936667;29;20129;-72
2021/01/09 07:16:41;;;;;;;33.50;20.73;;;;;;;-1.39;100.00;102404.66;4955593;28;20031;-76
2021/01/09 07:19:07;;;;;;;44.33;24.33;;;;;;;-1.33;100.00;102407.13;4948703;29;20106;-80
2021/01/09 07:21:32;;;;;;;36.35;20.85;;;;;;;-1.25;100.00;102407.78;4938986;28;20027;-80
2021/01/09 07:23:58;;;;;;;44.10;21.88;;;;;;;-1.21;100.00;102407.72;4941377;28;20023;-72
2021/01/09 07:26:23;;;;;;;33.38;19.67;;;;;;;-1.19;100.00;102411.16;4932401;29;20019;-79
2021/01/09 07:28:49;;;;;;;34.97;17.90;;;;;;;-1.19;100.00;102413.78;4943017;28;20044;-78
2021/01/09 07:31:15;;;;;;;26.48;16.70;;;;;;;-1.14;100.00;102414.50;4925104;28;20058;-73
2021/01/09 07:33:44;;;;;;;35.63;18.13;;;;;;;-1.09;100.00;102418.75;4936078;29;20386;-80
2021/01/09 07:36:13;;;;;;;27.50;16.05;;;;;;;-1.03;100.00;102422.13;4952395;28;20036;-79
2021/01/09 07:38:44;;;;;;;;;;;;;;;-0.98;100.00;102422.88;4950644;28;20090;-79
2021/01/09 07:41:10;;;;;;;32.25;17.38;;;;;;;-0.93;100.00;102424.47;4971567;28;19950;-80
2021/01/09 07:43:44;;;;;;;28.15;16.35;;;;;;;-1.58;100.00;102308.22;4931911;29;20090;-81
2021/01/09 07:46:28;;;;;;;29.02;16.75;;;;;;;-0.86;100.00;102429.53;4930464;28;20058;-80
2021/01/09 07:48:58;;;;;;;33.38;17.10;;;;;;;-1.06;100.00;102391.63;4950778;28;20039;-80
2021/01/09 07:51:48;;;;;;;35.05;16.70;;;;;;;-0.87;100.00;102431.31;4946501;28;20023;-74
2021/01/09 07:54:35;;;;;;;25.98;14.98;;;;;;;-0.96;100.00;102435.03;4940990;28;20031;-81
2021/01/09 07:57:20;;;;;;;30.27;15.17;;;;;;;-0.99;100.00;102429.84;4942590;28;20054;-80
2021/01/09 07:59:54;;;;;;;32.95;14.93;;;;;;;-0.93;100.00;102434.94;4966952;28;20036;-85
2021/01/09 08:02:30;;;;;;;26.23;15.38;;;;;;;-0.86;100.00;102434.78;4940353;28;20486;-80
2021/01/09 08:05:21;;;;;;;30.88;15.40;;;;;;;-0.79;100.00;102442.44;4944280;28;20042;-74
2021/01/09 08:07:53;;;;;;;28.52;15.15;;;;;;;-0.77;100.00;102448.50;4931929;28;20082;-81
2021/01/09 08:10:18;;;;;;;29.77;15.02;;;;;;;-0.73;100.00;102451.91;4957706;28;20505;-74
2021/01/09 08:12:51;;;;;;;27.67;14.75;;;;;;;-0.73;100.00;102457.16;4949390;28;20097;-79
2021/01/09 08:15:16;;;;;;;35.08;15.73;;;;;;;-0.74;100.00;102457.22;4947679;28;20122;-79
2021/01/09 08:17:42;;;;;;;27.95;13.90;;;;;;;-0.72;100.00;102458.88;4944894;28;20027;-80
2021/01/09 08:20:09;;;;;;;28.35;15.30;;;;;;;-0.71;100.00;102462.38;4942309;28;20514;-80
2021/01/09 08:22:36;;;;;;;31.05;15.30;;;;;;;-0.66;100.00;102458.72;4944901;28;20039;-81
2021/01/09 08:25:11;;;;;;;31.55;16.25;;;;;;;-0.90;100.00;102422.66;4929402;29;20039;-83
2021/01/09 08:27:44;;;;;;;29.23;16.08;;;;;;;-0.68;100.00;102470.16;4941955;28;20397;-79
2021/01/09 08:30:12;;;;;;;25.25;14.32;;;;;;;-0.80;100.00;102448.59;4943510;28;20138;-78
2021/01/09 08:32:37;;;;;;;22.27;12.07;;;;;;;-0.75;100.00;102450.25;4958672;28;20035;-79
2021/01/09 08:35:03;;;;;;;27.52;13.65;;;;;;;-0.60;100.00;102462.94;4966308;28;20051;-80
2021/01/09 08:37:29;;;;;;;24.65;13.85;;;;;;;-0.71;100.00;102433.53;4936826;28;20102;-79
2021/01/09 08:39:55;;;;;;;27.13;14.02;;;;;;;-0.31;100.00;102475.25;4959386;28;20027;-80
2021/01/09 08:42:20;;;;;;;27.25;14.43;;;;;;;-0.17;100.00;102482.78;4924693;28;20078;-80
2021/01/09 08:44:47;;;;;;;26.13;13.50;;;;;;;-0.11;100.00;102467.72;4956299;28;20498;-80
2021/01/09 08:47:14;;;;;;;24.38;12.68;;;;;;;0.05;100.00;102476.06;4943524;28;20039;-73
2021/01/09 08:49:39;;;;;;;43.35;18.65;;;;;;;-0.02;100.00;102459.63;4941124;28;20027;-72
2021/01/09 08:52:05;;;;;;;31.30;16.15;;;;;;;-0.05;100.00;102443.94;4941251;28;20514;-73
2021/01/09 08:54:31;;;;;;;24.48;12.55;;;;;;;0.22;100.00;102473.75;4926719;29;20209;-79
2021/01/09 08:56:57;;;;;;;22.20;11.45;;;;;;;0.41;100.00;102484.56;4940570;28;20394;-79
2021/01/09 08:59:23;;;;;;;22.40;11.35;;;;;;;0.33;100.00;102467.34;4939396;28;20035;-78
2021/01/09 09:01:49;;;;;;;21.95;10.70;;;;;;;0.42;100.00;102488.09;4942879;28;20492;-78
2021/01/09 09:04:19;;;;;;;25.17;11.45;;;;;;;0.57;100.00;102506.00;4930870;29;20142;-78
2021/01/09 09:06:44;;;;;;;20.52;10.18;;;;;;;0.61;100.00;102502.34;4945486;28;20034;-72
2021/01/09 09:09:16;;;;;;;22.20;11.52;;;;;;;0.67;100.00;102505.72;4933252;29;20137;-77
2021/01/09 09:11:48;;;;;;;24.00;12.05;;;;;;;0.70;100.00;102505.63;4953562;28;20046;-78
2021/01/09 09:14:14;;;;;;;25.58;12.40;;;;;;;0.70;100.00;102497.72;4962722;28;20027;-77
2021/01/09 09:16:39;;;;;;;23.02;12.70;;;;;;;0.89;100.00;102512.00;4942787;28;20054;-77
2021/01/09 09:19:23;;;;;;;17.95;10.25;;;;;;;0.83;100.00;102479.78;4942199;28;20035;-77
2021/01/09 09:21:55;;;;;;;22.38;9.52;;;;;;;1.11;100.00;102513.06;4931578;29;20050;-83
2021/01/09 09:24:20;;;;;;;17.05;8.57;;;;;;;1.00;100.00;102489.78;4948842;29;20078;-79
2021/01/09 09:26:46;;;;;;;17.40;6.88;;;;;;;1.24;98.87;102519.66;4947226;29;20031;-78
2021/01/09 09:29:13;;;;;;;17.73;6.72;;;;;;;1.24;98.95;102505.66;4943159;28;20037;-78
2021/01/09 09:31:40;;;;;;;15.52;6.07;;;;;;;1.22;98.60;102490.78;4934025;28;20085;-82
2021/01/09 09:34:15;;;;;;;14.32;5.80;;;;;;;1.52;98.49;102513.44;4924688;29;20054;-77
2021/01/09 09:36:41;;;;;;;18.25;5.93;;;;;;;0.89;97.03;102427.88;4946742;28;20094;-77
2021/01/09 09:39:33;;;;;;;15.02;5.05;;;;;;;1.46;95.99;102514.53;4946505;29;20035;-78
2021/01/09 09:41:59;;;;;;;14.38;6.07;;;;;;;1.35;96.46;102503.50;4959203;28;20165;-78
2021/01/09 09:44:41;;;;;;;24.77;6.72;;;;;;;1.38;96.23;102520.03;4943009;28;20050;-77
2021/01/09 09:47:08;;;;;;;16.55;6.18;;;;;;;1.34;96.30;102525.47;4933986;28;20122;-77
2021/01/09 09:49:35;;;;;;;12.95;5.18;;;;;;;1.19;96.33;102495.28;4942704;28;21042;-78
2021/01/09 09:52:01;;;;;;;18.63;5.95;;;;;;;1.41;96.86;102528.75;4947031;28;20062;-78
2021/01/09 09:54:28;;;;;;;14.85;5.15;;;;;;;1.45;96.25;102527.75;4956212;28;20034;-78
2021/01/09 09:56:54;;;;;;;11.85;5.25;;;;;;;1.26;96.48;102495.94;4948187;28;20082;-78
2021/01/09 09:59:19;;;;;;;9.70;4.72;;;;;;;1.41;95.46;102529.63;4935315;29;20032;-78
2021/01/09 10:01:45;;;;;;;15.57;6.03;;;;;;;1.37;95.83;102520.94;4932680;28;20042;-82
2021/01/09 10:04:19;;;;;;;15.98;5.80;;;;;;;1.30;95.88;102518.56;4948153;29;20726;-78
2021/01/09 10:06:44;;;;;;;16.77;5.53;;;;;;;1.24;96.37;102522.28;4934640;29;20035;-78
2021/01/09 10:09:17;;;;;;;14.52;6.15;;;;;;;0.98;97.07;102497.69;4952664;28;20076;-77
2021/01/09 10:11:43;;;;;;;18.45;6.63;;;;;;;0.72;97.63;102478.38;4947082;28;20050;-78
2021/01/09 10:14:08;;;;;;;14.20;6.55;;;;;;;0.72;98.16;102462.59;4942558;28;20024;-78
2021/01/09 10:16:34;;;;;;;25.38;7.03;;;;;;;1.05;98.39;102529.91;4928927;28;20039;-78
2021/01/09 10:18:59;;;;;;;21.02;7.15;;;;;;;1.04;98.97;102536.06;4945099;28;20034;-77
2021/01/09 10:21:31;;;;;;;21.48;7.43;;;;;;;1.04;99.42;102520.31;4933107;29;20015;-77
2021/01/09 10:23:56;;;;;;;20.90;8.38;;;;;;;0.76;99.38;102474.75;4949317;28;20035;-77
2021/01/09 10:26:29;;;;;;;26.10;7.57;;;;;;;0.86;99.78;102482.31;4933729;28;20042;-72
2021/01/09 10:28:55;;;;;;;19.73;6.53;;;;;;;1.09;99.87;102526.28;4947924;28;20673;-79
2021/01/09 10:31:39;;;;;;;15.43;6.88;;;;;;;0.87;99.44;102479.66;4950647;28;20027;-73
2021/01/09 10:34:06;;;;;;;19.42;6.95;;;;;;;0.87;99.35;102468.28;4931367;29;20027;-73
2021/01/09 10:36:33;;;;;;;13.70;6.32;;;;;;;0.75;99.40;102448.50;4949390;28;20038;-82
2021/01/09 10:38:58;;;;;;;16.80;7.32;;;;;;;1.27;99.13;102516.06;4944603;28;20038;-78
2021/01/09 10:41:24;;;;;;;16.85;7.32;;;;;;;1.36;99.50;102515.75;4942886;28;20027;-73
2021/01/09 10:43:49;;;;;;;11.63;5.93;;;;;;;1.45;99.31;102523.31;4948305;28;20031;-78
2021/01/09 10:46:33;;;;;;;16.02;6.25;;;;;;;1.35;99.01;102483.34;4946646;28;20031;-78
2021/01/09 10:48:58;;;;;;;12.45;5.80;;;;;;;1.55;98.13;102513.34;4943667;28;20044;-78
2021/01/09 10:51:26;;;;;;;22.92;6.38;;;;;;;1.59;98.26;102512.34;4945896;28;20024;-78
2021/01/09 10:53:51;;;;;;;14.45;6.07;;;;;;;1.38;98.23;102471.84;4942817;28;20046;-77
2021/01/09 10:56:17;;;;;;;13.75;6.22;;;;;;;1.63;98.11;102508.66;4911421;28;20035;-78
2021/01/09 10:58:42;;;;;;;18.90;6.80;;;;;;;1.79;98.04;102516.91;4911656;28;20058;-78
2021/01/09 11:01:08;;;;;;;18.92;7.15;;;;;;;1.86;97.67;102514.91;4928018;28;20031;-78
2021/01/09 11:03:33;;;;;;;19.73;7.20;;;;;;;1.15;97.23;102397.25;4942456;28;20118;-78
2021/01/09 11:05:59;;;;;;;21.60;6.85;;;;;;;1.93;97.56;102511.13;4940429;28;20406;-78
2021/01/09 11:08:25;;;;;;;18.27;6.85;;;;;;;1.62;97.74;102456.09;4945706;28;20173;-77